createdAt,value
2022-11-25T00:01:34.336Z,82.10
2022-11-25T00:04:02.124Z,82.00
2022-11-25T00:06:34.414Z,82.30
2022-11-25T00:09:11.746Z,82.00
2022-11-25T00:11:42.871Z,82.00
2022-11-25T00:14:15.612Z,82.20
2022-11-25T00:16:48.136Z,82.10
2022-11-25T00:19:16.911Z,82.00
2022-11-25T00:21:44.301Z,82.20
2022-11-25T00:24:17.662Z,81.80
2022-11-25T00:26:45.411Z,82.00
2022-11-25T00:29:14.245Z,81.80
2022-11-25T00:31:42.267Z,81.70
2022-11-25T00:34:14.713Z,81.60
2022-11-25T00:36:42.578Z,81.50
2022-11-25T00:39:18.573Z,81.60
2022-11-25T00:42:05.503Z,81.60
2022-11-25T00:44:35.894Z,81.60
2022-11-25T00:47:17.442Z,81.70
2022-11-25T00:49:52.697Z,81.90
2022-11-25T00:52:26.846Z,82.10
2022-11-25T00:54:55.140Z,82.10
2022-11-25T00:57:24.054Z,82.30
2022-11-25T00:59:51.614Z,82.30
2022-11-25T01:02:20.221Z,82.40
2022-11-25T01:04:47.895Z,82.40
2022-11-25T01:07:16.101Z,82.60
2022-11-25T01:09:44.310Z,82.40
2022-11-25T01:12:12.128Z,82.50
2022-11-25T01:14:39.742Z,82.10
2022-11-25T01:17:07.268Z,82.50
2022-11-25T01:19:38.386Z,82.20
2022-11-25T01:22:09.443Z,82.30
2022-11-25T01:24:36.946Z,82.50
2022-11-25T01:27:04.517Z,82.60
2022-11-25T01:29:31.881Z,82.50
2022-11-25T01:31:59.278Z,82.50
2022-11-25T01:34:28.585Z,82.50
2022-11-25T01:36:55.977Z,82.40
2022-11-25T01:39:32.065Z,82.20
2022-11-25T01:42:02.079Z,82.00
2022-11-25T01:44:33.075Z,82.10
2022-11-25T01:47:18.655Z,82.10
2022-11-25T01:50:05.194Z,81.90
2022-11-25T01:52:46.502Z,82.10
2022-11-25T01:55:23.583Z,82.30
2022-11-25T01:58:00.992Z,82.20
2022-11-25T02:00:28.494Z,82.40
2022-11-25T02:02:57.824Z,82.30
2022-11-25T02:06:08.983Z,82.40
2022-11-25T02:08:36.623Z,82.60
2022-11-25T02:11:04.787Z,82.50
2022-11-25T02:13:33.896Z,82.30
2022-11-25T02:16:01.359Z,82.50
2022-11-25T02:18:29.289Z,82.40
2022-11-25T02:20:56.692Z,82.40
2022-11-25T02:24:18.224Z,82.40
2022-11-25T02:26:45.874Z,82.70
2022-11-25T02:29:13.526Z,82.60
2022-11-25T02:31:40.878Z,82.70
2022-11-25T02:34:09.690Z,82.40
2022-11-25T02:36:37.372Z,82.50
2022-11-25T02:39:05.351Z,82.50
2022-11-25T02:41:44.498Z,82.60
2022-11-25T02:44:12.066Z,82.40
2022-11-25T02:46:39.566Z,82.30
2022-11-25T02:49:09.614Z,82.30
2022-11-25T02:51:42.020Z,82.50
2022-11-25T02:54:09.875Z,83.10
2022-11-25T09:06:12.305Z,90.30
2022-11-25T09:12:36.420Z,90.90
2022-11-25T09:19:33.787Z,91.10
2022-11-25T09:27:23.287Z,91.10
2022-11-25T09:36:33.499Z,91.10
2022-11-25T09:46:33.139Z,90.80
2022-11-25T09:49:52.304Z,91.20
2022-11-25T09:52:58.692Z,91.50
2022-11-25T09:55:30.634Z,91.50
2022-11-25T09:58:42.430Z,91.50
2022-11-25T10:01:26.174Z,91.20
2022-11-25T10:04:20.296Z,91.20
2022-11-25T10:06:58.259Z,91.10
2022-11-25T10:09:34.082Z,91.00
2022-11-25T10:12:32.539Z,91.00
2022-11-25T10:15:32.623Z,90.20
2022-11-25T10:18:42.409Z,90.30
2022-11-25T10:21:14.133Z,90.40
2022-11-25T10:23:41.500Z,90.40
2022-11-25T10:26:22.530Z,90.20
2022-11-25T10:29:14.736Z,90.20
2022-11-25T10:31:45.391Z,90.20
2022-11-25T10:34:39.286Z,89.60
2022-11-25T10:37:26.140Z,89.10
2022-11-25T10:39:53.535Z,88.20
2022-11-25T10:42:27.414Z,88.20
2022-11-25T10:44:55.911Z,88.40
2022-11-25T10:48:28.727Z,88.20
2022-11-25T10:52:00.399Z,87.90
2022-11-25T10:54:29.665Z,88.10
2022-11-25T10:57:19.919Z,87.90
2022-11-25T11:00:01.775Z,87.10
2022-11-25T11:02:41.727Z,86.90
2022-11-25T11:05:08.869Z,86.00
2022-11-25T11:07:45.371Z,85.50
2022-11-25T11:10:26.639Z,85.10
2022-11-25T11:13:25.792Z,84.60
2022-11-25T11:15:54.861Z,84.30
2022-11-25T11:18:41.968Z,85.20
2022-11-25T11:21:35.864Z,84.70
2022-11-25T11:24:38.060Z,85.40
2022-11-25T11:27:25.723Z,87.00
2022-11-25T11:30:23.895Z,85.60
2022-11-25T11:33:36.767Z,86.10
2022-11-25T11:36:51.601Z,86.90
2022-11-25T11:40:02.931Z,85.70
2022-11-25T11:43:20.589Z,85.40
2022-11-25T11:46:30.517Z,86.30
2022-11-25T11:49:43.976Z,86.20
2022-11-25T11:53:05.786Z,87.00
2022-11-25T11:56:35.988Z,86.60
2022-11-25T11:59:55.850Z,87.40
2022-11-25T12:03:18.599Z,86.80
2022-11-25T12:05:48.201Z,86.20
2022-11-25T12:08:34.274Z,87.20
2022-11-25T12:11:13.533Z,87.20
2022-11-25T12:14:23.547Z,87.00
2022-11-25T12:16:59.243Z,86.70
2022-11-25T12:20:07.082Z,86.80
2022-11-25T12:23:43.836Z,87.60
2022-11-25T12:26:47.068Z,86.60
2022-11-25T12:29:44.109Z,87.20
2022-11-25T12:32:48.494Z,86.20
2022-11-25T12:35:34.000Z,86.10
2022-11-25T12:38:47.803Z,86.00
2022-11-25T12:41:59.613Z,86.50
2022-11-25T12:45:11.986Z,85.90
2022-11-25T12:47:39.258Z,85.70
2022-11-25T12:50:14.463Z,85.50
2022-11-25T12:53:11.750Z,86.00
2022-11-25T12:55:40.707Z,85.70
2022-11-25T12:59:33.630Z,85.90
2022-11-25T13:03:14.139Z,85.10
2022-11-25T13:06:27.133Z,85.50
2022-11-25T13:09:43.339Z,84.40
2022-11-25T13:13:01.646Z,84.30
2022-11-25T13:15:44.967Z,84.00
2022-11-25T13:18:29.082Z,83.80
2022-11-25T13:21:05.327Z,84.40
2022-11-25T13:23:57.305Z,82.40
2022-11-25T13:26:45.820Z,83.90
2022-11-25T13:29:12.847Z,83.60
2022-11-25T13:32:03.285Z,83.50
2022-11-25T13:34:34.296Z,83.50
2022-11-25T13:37:33.510Z,83.50
2022-11-25T13:40:39.129Z,83.30
2022-11-25T13:43:22.567Z,82.50
2022-11-25T13:45:50.221Z,82.50
2022-11-25T13:48:30.600Z,83.00
2022-11-25T13:51:24.819Z,82.90
2022-11-25T13:54:06.411Z,80.30
2022-11-25T13:56:37.517Z,80.50
2022-11-25T13:59:10.730Z,80.00
2022-11-25T14:01:46.690Z,80.00
2022-11-25T14:04:16.221Z,79.00
2022-11-25T14:07:27.998Z,79.40
2022-11-25T14:10:45.867Z,79.90
2022-11-25T14:14:04.135Z,78.80
2022-11-25T14:17:24.644Z,79.10
2022-11-25T14:20:23.059Z,79.50
2022-11-25T14:23:52.234Z,79.70
2022-11-25T14:26:49.647Z,78.70
2022-11-25T14:29:32.564Z,78.20
2022-11-25T14:32:23.108Z,78.30
2022-11-25T14:35:09.740Z,77.10
2022-11-25T14:38:07.739Z,78.20
2022-11-25T14:41:19.858Z,77.70
2022-11-25T14:44:04.663Z,78.10
2022-11-25T14:46:32.209Z,77.90
2022-11-25T14:49:07.700Z,78.00
2022-11-25T14:51:39.274Z,77.70
2022-11-25T14:54:10.392Z,77.40
2022-11-25T14:56:39.240Z,77.50
2022-11-25T14:59:10.482Z,77.70
2022-11-25T15:01:50.227Z,77.80
2022-11-25T15:04:25.407Z,77.60
2022-11-25T15:07:01.892Z,77.80
2022-11-25T15:09:42.258Z,78.30
2022-11-25T15:12:20.365Z,78.50
2022-11-25T15:14:55.714Z,79.00
2022-11-25T15:17:37.340Z,78.90
2022-11-25T15:20:17.576Z,78.80
2022-11-25T15:22:53.958Z,79.30
2022-11-25T15:25:21.571Z,79.00
2022-11-25T15:27:53.184Z,79.40
2022-11-25T15:30:31.835Z,79.20
2022-11-25T15:32:59.531Z,79.40
2022-11-25T15:35:27.955Z,79.40
2022-11-25T15:37:55.367Z,79.80
2022-11-25T15:40:44.374Z,80.20
2022-11-25T15:43:30.280Z,79.80
2022-11-25T15:46:05.789Z,79.60
2022-11-25T15:48:46.190Z,79.80
2022-11-25T15:51:48.447Z,79.60
2022-11-25T15:54:42.554Z,78.80
2022-11-25T15:57:37.426Z,78.90
2022-11-25T16:00:23.250Z,78.40
2022-11-25T16:02:59.570Z,78.60
2022-11-25T16:05:37.507Z,78.30
2022-11-25T16:08:33.753Z,78.20
2022-11-25T16:11:19.356Z,78.00
2022-11-25T16:13:50.372Z,77.60
2022-11-25T16:16:31.297Z,77.70
2022-11-25T16:19:16.624Z,77.90
2022-11-25T16:21:54.635Z,78.00
2022-11-25T16:24:41.765Z,78.20
2022-11-25T16:27:23.583Z,77.70
2022-11-25T16:30:20.370Z,78.10
2022-11-25T16:32:47.632Z,78.20
2022-11-25T16:35:22.176Z,78.70
2022-11-25T16:37:49.943Z,78.80
2022-11-25T16:40:19.145Z,78.80
2022-11-25T16:42:53.357Z,79.00
2022-11-25T16:45:28.272Z,79.60
2022-11-25T16:47:55.958Z,79.10
2022-11-25T16:50:24.035Z,79.20
2022-11-25T16:52:51.458Z,79.20
2022-11-25T16:55:19.011Z,79.20
2022-11-25T16:57:46.995Z,79.30
2022-11-25T17:00:18.100Z,79.30
2022-11-25T17:02:45.755Z,79.20
2022-11-25T17:05:25.675Z,79.30
2022-11-25T17:07:53.177Z,79.60
2022-11-25T17:10:21.632Z,79.50
2022-11-25T17:12:50.828Z,79.70
2022-11-25T17:15:35.941Z,79.50
2022-11-25T17:18:07.073Z,79.90
2022-11-25T17:20:34.946Z,79.60
2022-11-25T17:23:02.670Z,79.70
2022-11-25T17:25:36.536Z,79.90
2022-11-25T17:28:04.811Z,79.90
2022-11-25T17:30:32.497Z,79.90
2022-11-25T17:33:18.348Z,80.50
2022-11-25T17:35:46.400Z,79.90
2022-11-25T17:38:20.147Z,80.10
2022-11-25T17:40:47.916Z,80.10
2022-11-25T17:43:20.989Z,80.10
2022-11-25T17:45:48.344Z,79.70
2022-11-25T17:48:18.311Z,79.90
2022-11-25T17:50:46.875Z,79.80
2022-11-25T17:53:14.231Z,79.50
2022-11-25T17:55:42.009Z,79.20
2022-11-25T17:58:14.669Z,79.40
2022-11-25T18:00:44.924Z,78.90
2022-11-25T18:03:16.361Z,78.60
2022-11-25T18:05:44.014Z,78.60
2022-11-25T18:08:11.307Z,78.60
2022-11-25T18:10:39.619Z,78.80
2022-11-25T18:13:06.963Z,78.70
2022-11-25T18:15:34.886Z,78.80
2022-11-25T18:18:22.193Z,78.80
2022-11-25T18:20:50.856Z,78.80
2022-11-25T18:23:19.471Z,79.00
2022-11-25T18:25:47.407Z,78.90
2022-11-25T18:28:26.903Z,78.20
2022-11-25T18:30:58.430Z,78.40
2022-11-25T18:33:25.847Z,78.00
2022-11-25T18:35:53.134Z,78.40
2022-11-25T18:38:20.404Z,78.50
2022-11-25T18:40:53.299Z,78.00
2022-11-25T18:43:26.622Z,77.60
2022-11-25T18:45:54.404Z,78.20
2022-11-25T18:48:27.700Z,78.20
2022-11-25T18:50:57.043Z,78.40
2022-11-25T18:53:24.351Z,78.30
2022-11-25T18:55:52.168Z,79.00
